CFG282 EDDF-HTZA
Flight info
| Callsign | CFG282 |
|---|---|
| Flight time | N/A |
| Altitude | 33000 |
| Route | CINDY8S CINDY Z74 LAMPU DCT NOMBO Y161 MAH DCT VAVOR DCT RADIZ DCT NEMEK DCT ELTIB DCT GLOMY DCT PETAK DCT DIMIS UL604 TRL/N0476F350 DCT SALUN N705 BOPIX N710 TAKRI P751 LXR M999 JDW G650 RASKA/N0484F360 G650 KONET M308 GWZ/N0478F380 M308 GETOL/N0482F370 T129 ALEMU DCT ENORA/N0478F380 DCT EVOGO DCT UVUKO |
| Aircraft | B763/H-SDE3FGHIM3RWXY/LB1 |
Departure
| Time | N/A |
|---|---|
| Airport | Frankfurt Main Airport (EDDF) |
Arrival
| Time | 2026-04-25 22:10 |
|---|---|
| Airport | Abeid Amani Karume International Airport (HTZA) |
| Time | Latitude | Longitude | Altitude | Speed | Heading |
|---|---|---|---|---|---|
| 2026-04-25 21:16 | -0.36108 | 39.91010 | 37927 ft | 483 kts | 183° |
| 2026-04-25 21:16 | -0.39505 | 39.90749 | 37928 ft | 483 kts | 183° |
| 2026-04-25 21:17 | -0.46227 | 39.90233 | 37931 ft | 483 kts | 183° |
| 2026-04-25 21:17 | -0.52936 | 39.89718 | 37926 ft | 483 kts | 183° |
| 2026-04-25 21:18 | -0.59630 | 39.89204 | 37927 ft | 481 kts | 183° |
| 2026-04-25 21:18 | -0.66360 | 39.88687 | 37930 ft | 482 kts | 183° |
| 2026-04-25 21:19 | -0.73061 | 39.88173 | 37923 ft | 481 kts | 183° |
| 2026-04-25 21:19 | -0.79776 | 39.87657 | 37921 ft | 481 kts | 183° |
| 2026-04-25 21:20 | -0.83079 | 39.87403 | 37905 ft | 469 kts | 183° |
| 2026-04-25 21:20 | -0.85266 | 39.87235 | 37892 ft | 460 kts | 183° |
| 2026-04-25 21:20 | -0.89520 | 39.86908 | 36747 ft | 467 kts | 183° |
| 2026-04-25 21:20 | -0.92706 | 39.86663 | 37032 ft | 446 kts | 183° |
| 2026-04-25 21:21 | -0.95754 | 39.86428 | 37852 ft | 435 kts | 183° |
| 2026-04-25 21:21 | -0.98829 | 39.86193 | 37909 ft | 444 kts | 183° |
| 2026-04-25 21:21 | -1.05083 | 39.85714 | 37925 ft | 457 kts | 183° |
| 2026-04-25 21:22 | -1.11569 | 39.85216 | 37932 ft | 475 kts | 183° |
| 2026-04-25 21:22 | -1.18314 | 39.84698 | 37932 ft | 490 kts | 183° |
| 2026-04-25 21:23 | -1.25182 | 39.84170 | 37931 ft | 491 kts | 183° |
| 2026-04-25 21:23 | -1.28533 | 39.83912 | 37920 ft | 472 kts | 183° |
| 2026-04-25 21:23 | -1.31780 | 39.83662 | 37927 ft | 463 kts | 183° |
| 2026-04-25 21:24 | -1.38279 | 39.83164 | 37937 ft | 470 kts | 183° |
| 2026-04-25 21:24 | -1.44875 | 39.82657 | 37933 ft | 477 kts | 183° |
| 2026-04-25 21:25 | -1.51561 | 39.82144 | 37918 ft | 477 kts | 183° |
| 2026-04-25 21:25 | -1.58219 | 39.81633 | 37919 ft | 482 kts | 184° |
| 2026-04-25 21:26 | -1.64975 | 39.81113 | 37913 ft | 482 kts | 184° |
| 2026-04-25 21:26 | -1.71260 | 39.80630 | 37911 ft | 481 kts | 184° |
| 2026-04-25 21:27 | -1.77985 | 39.80112 | 37921 ft | 482 kts | 184° |
| 2026-04-25 21:27 | -1.84688 | 39.79438 | 37919 ft | 482 kts | 185° |
| 2026-04-25 21:28 | -1.91414 | 39.78748 | 37926 ft | 483 kts | 185° |
| 2026-04-25 21:28 | -1.98111 | 39.78060 | 37926 ft | 482 kts | 185° |
| 2026-04-25 21:29 | -2.04842 | 39.77370 | 37925 ft | 482 kts | 185° |
| 2026-04-25 21:29 | -2.11535 | 39.76684 | 37926 ft | 482 kts | 185° |
| 2026-04-25 21:30 | -2.18247 | 39.75995 | 37921 ft | 483 kts | 185° |
| 2026-04-25 21:30 | -2.23797 | 39.75426 | 37923 ft | 482 kts | 185° |
| 2026-04-25 21:31 | -2.31645 | 39.74622 | 37923 ft | 482 kts | 185° |
| 2026-04-25 21:31 | -2.38331 | 39.73936 | 37927 ft | 482 kts | 185° |
| 2026-04-25 21:32 | -2.45015 | 39.73250 | 37924 ft | 482 kts | 185° |
| 2026-04-25 21:32 | -2.51710 | 39.72563 | 37926 ft | 482 kts | 185° |
| 2026-04-25 21:33 | -2.58449 | 39.71872 | 37933 ft | 483 kts | 185° |
| 2026-04-25 21:33 | -2.65119 | 39.71187 | 37931 ft | 481 kts | 185° |
| 2026-04-25 21:34 | -2.71835 | 39.70498 | 37931 ft | 481 kts | 185° |
| 2026-04-25 21:34 | -2.78501 | 39.69814 | 37936 ft | 482 kts | 185° |
| 2026-04-25 21:35 | -2.85232 | 39.69123 | 37938 ft | 481 kts | 185° |
| 2026-04-25 21:35 | -2.91952 | 39.68433 | 37940 ft | 487 kts | 185° |
| 2026-04-25 21:36 | -2.98712 | 39.67739 | 37943 ft | 490 kts | 185° |
| 2026-04-25 21:36 | -3.05546 | 39.67037 | 37947 ft | 488 kts | 185° |
| 2026-04-25 21:37 | -3.11194 | 39.66457 | 37947 ft | 487 kts | 185° |
| 2026-04-25 21:37 | -3.19058 | 39.65650 | 37949 ft | 487 kts | 185° |
| 2026-04-25 21:38 | -3.25851 | 39.64952 | 37950 ft | 487 kts | 185° |
| 2026-04-25 21:38 | -3.32592 | 39.64259 | 37952 ft | 488 kts | 185° |
| 2026-04-25 21:39 | -3.39390 | 39.63560 | 37949 ft | 489 kts | 185° |
| 2026-04-25 21:39 | -3.46182 | 39.62863 | 37949 ft | 488 kts | 185° |
| 2026-04-25 21:40 | -3.52960 | 39.62166 | 37950 ft | 487 kts | 185° |
| 2026-04-25 21:40 | -3.59743 | 39.61469 | 37951 ft | 487 kts | 185° |
| 2026-04-25 21:41 | -3.66488 | 39.60775 | 37953 ft | 487 kts | 185° |
| 2026-04-25 21:41 | -3.73256 | 39.60080 | 37954 ft | 487 kts | 185° |
| 2026-04-25 21:42 | -3.80042 | 39.59381 | 37952 ft | 487 kts | 185° |
| 2026-04-25 21:42 | -3.86816 | 39.58685 | 37947 ft | 487 kts | 185° |
| 2026-04-25 21:43 | -3.93518 | 39.57995 | 37746 ft | 475 kts | 185° |
| 2026-04-25 21:43 | -3.96810 | 39.57657 | 37108 ft | 476 kts | 185° |
| 2026-04-25 21:43 | -4.00089 | 39.57319 | 36466 ft | 476 kts | 185° |
| 2026-04-25 21:44 | -4.03394 | 39.56979 | 35740 ft | 477 kts | 185° |
| 2026-04-25 21:44 | -4.06712 | 39.56638 | 34966 ft | 478 kts | 185° |
| 2026-04-25 21:44 | -4.13354 | 39.55954 | 33386 ft | 482 kts | 185° |
| 2026-04-25 21:45 | -4.16727 | 39.55607 | 32627 ft | 482 kts | 185° |
| 2026-04-25 21:45 | -4.18920 | 39.55382 | 32153 ft | 483 kts | 185° |
| 2026-04-25 21:45 | -4.23431 | 39.54916 | 31132 ft | 485 kts | 184° |
| 2026-04-25 21:45 | -4.26815 | 39.54568 | 30348 ft | 487 kts | 184° |
| 2026-04-25 21:46 | -4.30194 | 39.54220 | 29613 ft | 487 kts | 184° |
| 2026-04-25 21:46 | -4.33566 | 39.53872 | 28768 ft | 489 kts | 184° |
| 2026-04-25 21:46 | -4.36955 | 39.53524 | 27946 ft | 490 kts | 184° |
| 2026-04-25 21:46 | -4.40345 | 39.53175 | 27447 ft | 484 kts | 184° |
| 2026-04-25 21:47 | -4.43702 | 39.52829 | 26749 ft | 483 kts | 184° |
| 2026-04-25 21:47 | -4.47038 | 39.52485 | 26192 ft | 478 kts | 184° |
| 2026-04-25 21:47 | -4.50332 | 39.52146 | 25558 ft | 475 kts | 184° |
| 2026-04-25 21:47 | -4.53619 | 39.51807 | 25024 ft | 469 kts | 185° |
| 2026-04-25 21:48 | -4.56881 | 39.51471 | 24361 ft | 467 kts | 185° |
| 2026-04-25 21:48 | -4.60102 | 39.51140 | 23871 ft | 460 kts | 185° |
| 2026-04-25 21:48 | -4.63260 | 39.50813 | 23393 ft | 452 kts | 185° |
| 2026-04-25 21:48 | -4.66403 | 39.50490 | 22929 ft | 453 kts | 185° |
| 2026-04-25 21:49 | -4.69593 | 39.50143 | 22458 ft | 455 kts | 187° |
| 2026-04-25 21:49 | -4.72685 | 39.49522 | 22011 ft | 454 kts | 192° |
| 2026-04-25 21:49 | -4.75787 | 39.48844 | 21558 ft | 451 kts | 191° |
| 2026-04-25 21:49 | -4.78854 | 39.48165 | 21103 ft | 447 kts | 192° |
| 2026-04-25 21:50 | -4.81901 | 39.47492 | 20645 ft | 443 kts | 192° |
| 2026-04-25 21:50 | -4.84889 | 39.46826 | 20187 ft | 440 kts | 192° |
| 2026-04-25 21:50 | -4.87879 | 39.46160 | 19733 ft | 436 kts | 192° |
| 2026-04-25 21:50 | -4.89871 | 39.45715 | 19428 ft | 433 kts | 192° |
| 2026-04-25 21:51 | -4.93782 | 39.44843 | 18849 ft | 429 kts | 192° |
| 2026-04-25 21:51 | -4.96670 | 39.44198 | 18420 ft | 425 kts | 192° |
| 2026-04-25 21:51 | -4.99575 | 39.43549 | 17988 ft | 422 kts | 192° |
| 2026-04-25 21:51 | -5.02437 | 39.42910 | 17554 ft | 420 kts | 192° |
| 2026-04-25 21:52 | -5.05294 | 39.42272 | 17115 ft | 418 kts | 192° |
| 2026-04-25 21:52 | -5.08115 | 39.41642 | 16689 ft | 416 kts | 192° |
| 2026-04-25 21:52 | -5.10946 | 39.41010 | 16193 ft | 406 kts | 192° |
| 2026-04-25 21:52 | -5.13650 | 39.40406 | 15710 ft | 386 kts | 192° |
| 2026-04-25 21:53 | -5.16211 | 39.39834 | 15246 ft | 369 kts | 193° |
| 2026-04-25 21:53 | -5.18697 | 39.39278 | 14783 ft | 355 kts | 193° |
| 2026-04-25 21:53 | -5.21076 | 39.38746 | 14324 ft | 345 kts | 193° |
| 2026-04-25 21:53 | -5.23403 | 39.38226 | 13952 ft | 345 kts | 193° |
| 2026-04-25 21:54 | -5.25784 | 39.37693 | 13513 ft | 348 kts | 193° |
| 2026-04-25 21:54 | -5.28154 | 39.37163 | 13164 ft | 343 kts | 193° |
| 2026-04-25 21:54 | -5.30473 | 39.36646 | 12737 ft | 336 kts | 193° |
| 2026-04-25 21:54 | -5.32695 | 39.36148 | 12352 ft | 321 kts | 193° |
| 2026-04-25 21:55 | -5.34857 | 39.35665 | 11981 ft | 308 kts | 193° |
| 2026-04-25 21:55 | -5.36926 | 39.35202 | 11607 ft | 297 kts | 193° |
| 2026-04-25 21:55 | -5.38912 | 39.34757 | 11238 ft | 288 kts | 192° |
| 2026-04-25 21:55 | -5.40855 | 39.34322 | 10869 ft | 286 kts | 192° |
| 2026-04-25 21:56 | -5.42818 | 39.33883 | 10507 ft | 286 kts | 192° |
| 2026-04-25 21:56 | -5.44116 | 39.33593 | 10272 ft | 285 kts | 192° |
| 2026-04-25 21:56 | -5.46690 | 39.33018 | 9796 ft | 285 kts | 191° |
| 2026-04-25 21:56 | -5.48646 | 39.32579 | 9435 ft | 282 kts | 191° |
| 2026-04-25 21:57 | -5.50550 | 39.32154 | 9078 ft | 279 kts | 191° |
| 2026-04-25 21:57 | -5.52463 | 39.31727 | 8710 ft | 277 kts | 191° |
| 2026-04-25 21:57 | -5.54329 | 39.31309 | 8350 ft | 275 kts | 191° |
| 2026-04-25 21:57 | -5.56192 | 39.30892 | 7992 ft | 272 kts | 191° |
| 2026-04-25 21:58 | -5.58037 | 39.30480 | 7628 ft | 270 kts | 191° |
| 2026-04-25 21:58 | -5.59871 | 39.30069 | 7268 ft | 267 kts | 191° |
| 2026-04-25 21:58 | -5.61686 | 39.29663 | 6901 ft | 265 kts | 191° |
| 2026-04-25 21:58 | -5.63490 | 39.29259 | 6540 ft | 262 kts | 191° |
| 2026-04-25 21:59 | -5.65270 | 39.28860 | 6173 ft | 259 kts | 191° |
| 2026-04-25 21:59 | -5.67040 | 39.28465 | 5808 ft | 255 kts | 191° |
| 2026-04-25 21:59 | -5.68756 | 39.28080 | 5438 ft | 249 kts | 191° |
| 2026-04-25 22:00 | -5.71586 | 39.27447 | 4806 ft | 241 kts | 191° |
| 2026-04-25 22:00 | -5.73210 | 39.27084 | 4437 ft | 237 kts | 191° |
| 2026-04-25 22:00 | -5.74808 | 39.26726 | 4071 ft | 233 kts | 191° |
| 2026-04-25 22:00 | -5.76394 | 39.26371 | 3702 ft | 230 kts | 191° |
| 2026-04-25 22:01 | -5.77943 | 39.26024 | 3338 ft | 227 kts | 191° |
| 2026-04-25 22:01 | -5.79499 | 39.25676 | 3021 ft | 222 kts | 191° |
| 2026-04-25 22:01 | -5.80990 | 39.25341 | 2988 ft | 219 kts | 191° |
| 2026-04-25 22:01 | -5.82004 | 39.25115 | 2982 ft | 224 kts | 191° |
| 2026-04-25 22:02 | -5.84067 | 39.24654 | 2956 ft | 228 kts | 191° |
| 2026-04-25 22:02 | -5.85609 | 39.24308 | 2926 ft | 226 kts | 191° |
| 2026-04-25 22:02 | -5.87153 | 39.23962 | 2900 ft | 226 kts | 191° |
| 2026-04-25 22:02 | -5.88697 | 39.23616 | 2875 ft | 225 kts | 191° |
| 2026-04-25 22:03 | -5.90235 | 39.23272 | 2847 ft | 225 kts | 191° |
| 2026-04-25 22:03 | -5.91768 | 39.22928 | 2818 ft | 226 kts | 191° |
| 2026-04-25 22:03 | -5.93340 | 39.22577 | 2613 ft | 229 kts | 191° |
| 2026-04-25 22:03 | -5.94886 | 39.22230 | 2416 ft | 222 kts | 191° |
| 2026-04-25 22:04 | -5.96355 | 39.21900 | 2274 ft | 214 kts | 191° |
| 2026-04-25 22:04 | -5.97812 | 39.21574 | 2008 ft | 206 kts | 191° |
| 2026-04-25 22:04 | -5.99165 | 39.21269 | 1964 ft | 194 kts | 190° |
| 2026-04-25 22:04 | -6.00495 | 39.20972 | 1900 ft | 190 kts | 190° |
| 2026-04-25 22:05 | -6.01722 | 39.20693 | 1965 ft | 175 kts | 190° |
| 2026-04-25 22:05 | -6.02950 | 39.20568 | 1952 ft | 179 kts | 174° |
| 2026-04-25 22:05 | -6.04192 | 39.20704 | 1942 ft | 174 kts | 173° |
| 2026-04-25 22:05 | -6.05319 | 39.20811 | 1884 ft | 146 kts | 173° |
| 2026-04-25 22:06 | -6.06269 | 39.20903 | 1972 ft | 137 kts | 172° |
| 2026-04-25 22:06 | -6.07271 | 39.21003 | 1971 ft | 145 kts | 173° |
| 2026-04-25 22:06 | -6.08264 | 39.21101 | 1936 ft | 142 kts | 173° |
| 2026-04-25 22:06 | -6.09260 | 39.21200 | 1946 ft | 141 kts | 172° |
| 2026-04-25 22:07 | -6.10246 | 39.21298 | 1951 ft | 142 kts | 173° |
| 2026-04-25 22:07 | -6.10909 | 39.21363 | 1948 ft | 142 kts | 173° |
| 2026-04-25 22:07 | -6.12240 | 39.21469 | 1861 ft | 144 kts | 174° |
| 2026-04-25 22:07 | -6.13248 | 39.21561 | 1688 ft | 144 kts | 172° |
| 2026-04-25 22:08 | -6.14253 | 39.21668 | 1425 ft | 142 kts | 172° |
| 2026-04-25 22:08 | -6.15218 | 39.21767 | 1139 ft | 138 kts | 172° |
| 2026-04-25 22:08 | -6.16168 | 39.21864 | 913 ft | 134 kts | 173° |
| 2026-04-25 22:08 | -6.17113 | 39.21961 | 764 ft | 139 kts | 172° |
| 2026-04-25 22:09 | -6.18078 | 39.22062 | 663 ft | 139 kts | 173° |
| 2026-04-25 22:09 | -6.19052 | 39.22169 | 511 ft | 140 kts | 173° |
| 2026-04-25 22:09 | -6.20017 | 39.22267 | 314 ft | 138 kts | 173° |
| 2026-04-25 22:09 | -6.20990 | 39.22367 | 129 ft | 138 kts | 173° |
| 2026-04-25 22:10 | -6.21930 | 39.22460 | 59 ft | 133 kts | 174° |
| 2026-04-25 22:10 | -6.22783 | 39.22545 | 56 ft | 82 kts | 174° |
| 2026-04-25 22:10 | -6.23190 | 39.22587 | 58 ft | 42 kts | 174° |
| 2026-04-25 22:10 | -6.23432 | 39.22611 | 59 ft | 31 kts | 175° |
| 2026-04-25 22:11 | -6.23635 | 39.22631 | 56 ft | 16 kts | 175° |
| 2026-04-25 22:11 | -6.23709 | 39.22639 | 56 ft | 2 kts | 173° |
| 2026-04-25 22:11 | -6.23741 | 39.22642 | 56 ft | 6 kts | 174° |
| 2026-04-25 22:11 | -6.23784 | 39.22638 | 56 ft | 6 kts | 206° |
| 2026-04-25 22:12 | -6.23803 | 39.22598 | 57 ft | 6 kts | 263° |
| 2026-04-25 22:12 | -6.23810 | 39.22545 | 58 ft | 7 kts | 265° |
| 2026-04-25 22:12 | -6.23803 | 39.22492 | 59 ft | 6 kts | 295° |
| 2026-04-25 22:12 | -6.23781 | 39.22477 | 59 ft | 6 kts | 340° |
| 2026-04-25 22:13 | -6.23706 | 39.22467 | 60 ft | 11 kts | 354° |
| 2026-04-25 22:13 | -6.23605 | 39.22457 | 60 ft | 17 kts | 354° |
| 2026-04-25 22:13 | -6.23498 | 39.22448 | 60 ft | 10 kts | 354° |
| 2026-04-25 22:13 | -6.23391 | 39.22438 | 60 ft | 22 kts | 355° |
| 2026-04-25 22:14 | -6.23226 | 39.22419 | 60 ft | 24 kts | 355° |
| 2026-04-25 22:14 | -6.23062 | 39.22408 | 59 ft | 22 kts | 349° |
| 2026-04-25 22:14 | -6.22901 | 39.22386 | 59 ft | 23 kts | 355° |
| 2026-04-25 22:14 | -6.22732 | 39.22370 | 58 ft | 24 kts | 354° |
| 2026-04-25 22:15 | -6.22576 | 39.22355 | 58 ft | 13 kts | 354° |
| 2026-04-25 22:15 | -6.22476 | 39.22344 | 59 ft | 14 kts | 354° |
| 2026-04-25 22:15 | -6.22435 | 39.22330 | 59 ft | 6 kts | 317° |
| 2026-04-25 22:16 | -6.22426 | 39.22239 | 59 ft | 8 kts | 264° |
| 2026-04-25 22:16 | -6.22431 | 39.22195 | 59 ft | 0 kts | 263° |
| 2026-04-25 22:16 | -6.22429 | 39.22185 | 59 ft | 2 kts | 285° |
| 2026-04-25 22:16 | -6.22415 | 39.22175 | 59 ft | 0 kts | 345° |
| 2026-04-25 22:17 | -6.22405 | 39.22175 | 59 ft | 6 kts | 360° |
| 2026-04-25 22:17 | -6.22366 | 39.22174 | 59 ft | 4 kts | 353° |
| 2026-04-25 22:17 | -6.22348 | 39.22172 | 59 ft | 1 kts | 353° |
| 2026-04-25 22:17 | -6.22343 | 39.22172 | 59 ft | 0 kts | 354° |
| 2026-04-25 22:18 | -6.22340 | 39.22171 | 59 ft | 0 kts | 354° |
| 2026-04-25 22:18 | -6.22339 | 39.22171 | 59 ft | 0 kts | 354° |